createdAt,value
2018-09-06T00:01:38.099Z,10.40
2018-09-06T00:04:06.807Z,11.60
2018-09-06T00:06:35.856Z,10.60
2018-09-06T00:09:06.439Z,12.97
2018-09-06T00:11:36.009Z,9.93
2018-09-06T00:14:05.718Z,10.67
2018-09-06T00:16:34.717Z,9.80
2018-09-06T00:19:03.506Z,10.83
2018-09-06T00:21:32.571Z,14.67
2018-09-06T00:24:03.186Z,12.93
2018-09-06T00:26:32.651Z,9.37
2018-09-06T00:29:01.897Z,9.53
2018-09-06T00:31:31.949Z,10.73
2018-09-06T00:36:37.869Z,8.87
2018-09-06T00:39:09.346Z,10.93
2018-09-06T00:41:38.130Z,10.57
2018-09-06T00:44:07.055Z,8.90
2018-09-06T00:46:36.573Z,8.40
2018-09-06T00:49:05.433Z,9.60
2018-09-06T00:51:34.436Z,10.70
2018-09-06T00:54:03.630Z,8.67
2018-09-06T00:56:32.293Z,11.37
2018-09-06T00:59:09.017Z,12.47
2018-09-06T01:01:37.891Z,12.43
2018-09-06T01:04:06.558Z,10.70
2018-09-06T01:06:35.271Z,9.70
2018-09-06T01:09:05.140Z,9.43
2018-09-06T01:11:33.828Z,8.60
2018-09-06T01:14:02.435Z,10.73
2018-09-06T01:16:31.090Z,16.43
2018-09-06T01:18:59.788Z,11.70
2018-09-06T01:21:28.494Z,13.83
2018-09-06T01:23:57.188Z,11.33
2018-09-06T01:26:25.862Z,16.63
2018-09-06T01:28:54.610Z,11.83
2018-09-06T01:31:23.351Z,10.17
2018-09-06T01:33:51.975Z,10.27
2018-09-06T01:36:25.986Z,12.03
2018-09-06T01:38:54.602Z,14.47
2018-09-06T01:41:23.219Z,12.50
2018-09-06T01:43:51.955Z,11.47
2018-09-06T01:46:20.540Z,14.53
2018-09-06T01:48:49.162Z,10.10
2018-09-06T01:51:17.733Z,15.77
2018-09-06T01:53:46.342Z,10.57
2018-09-06T01:56:14.938Z,16.93
2018-09-06T01:58:43.677Z,10.20
2018-09-06T02:01:12.380Z,9.23
2018-09-06T02:03:41.172Z,12.50
2018-09-06T02:06:09.908Z,8.80
2018-09-06T02:08:38.689Z,12.03
2018-09-06T02:11:07.299Z,10.27
2018-09-06T02:13:36.082Z,11.67
2018-09-06T02:16:05.212Z,15.57
2018-09-06T02:18:34.126Z,13.73
2018-09-06T02:21:03.187Z,11.43
2018-09-06T02:23:32.249Z,9.00
2018-09-06T02:26:01.331Z,11.57
2018-09-06T02:28:30.053Z,15.83
2018-09-06T02:30:58.773Z,10.57
2018-09-06T02:33:27.317Z,10.93
2018-09-06T02:35:55.928Z,12.67
2018-09-06T02:38:24.648Z,9.63
2018-09-06T02:40:53.249Z,12.57
2018-09-06T02:43:21.861Z,13.93
2018-09-06T02:45:50.525Z,10.27
2018-09-06T02:48:19.411Z,10.20
2018-09-06T02:50:53.340Z,15.80
2018-09-06T02:53:22.069Z,13.07
2018-09-06T02:55:50.860Z,17.53
2018-09-06T02:58:19.529Z,11.57
2018-09-06T03:00:48.277Z,10.20
2018-09-06T03:03:16.921Z,9.83
2018-09-06T03:05:45.621Z,12.40
2018-09-06T03:08:14.468Z,13.87
2018-09-06T03:10:44.774Z,12.70
2018-09-06T03:13:13.576Z,17.10
2018-09-06T03:15:42.315Z,14.07
2018-09-06T03:18:10.953Z,17.03
2018-09-06T03:20:39.634Z,16.00
2018-09-06T03:23:08.352Z,16.40
2018-09-06T03:25:37.034Z,14.10
2018-09-06T03:28:05.786Z,14.57
2018-09-06T03:30:34.485Z,12.37
2018-09-06T03:33:03.404Z,16.67
2018-09-06T03:35:32.676Z,13.07
2018-09-06T03:38:01.619Z,14.13
2018-09-06T03:40:30.535Z,14.13
2018-09-06T03:42:59.068Z,12.30
2018-09-06T03:45:27.703Z,14.77
2018-09-06T03:47:56.326Z,16.40
2018-09-06T03:50:25.033Z,13.00
2018-09-06T03:52:53.598Z,19.57
2018-09-06T03:55:22.387Z,12.77
2018-09-06T03:57:51.072Z,14.10
2018-09-06T04:00:19.795Z,14.40
2018-09-06T04:02:48.391Z,14.90
2018-09-06T04:05:17.171Z,13.23
2018-09-06T04:07:45.758Z,15.87
2018-09-06T04:10:14.434Z,15.50
2018-09-06T04:12:43.053Z,16.17
2018-09-06T04:15:11.868Z,16.80
2018-09-06T04:17:40.623Z,18.30
2018-09-06T04:20:09.303Z,13.63
2018-09-06T04:22:55.466Z,17.33
2018-09-06T04:25:24.345Z,16.10
2018-09-06T04:27:53.159Z,14.00
2018-09-06T04:30:21.816Z,12.93
2018-09-06T04:32:50.519Z,16.77
2018-09-06T04:35:19.757Z,13.00
2018-09-06T04:37:48.433Z,17.27
2018-09-06T04:40:17.110Z,16.50
2018-09-06T04:42:45.742Z,17.80
2018-09-06T04:45:14.534Z,18.13
2018-09-06T04:47:43.226Z,18.90
2018-09-06T04:50:11.865Z,14.63
2018-09-06T04:52:41.268Z,19.63
2018-09-06T04:55:09.999Z,16.53
2018-09-06T04:57:38.653Z,25.17
2018-09-06T05:00:07.387Z,16.80
2018-09-06T05:02:36.176Z,17.23
2018-09-06T05:05:05.064Z,16.90
2018-09-06T05:07:33.895Z,18.70
2018-09-06T05:10:02.594Z,19.63
2018-09-06T05:12:31.387Z,19.13
2018-09-06T05:15:00.018Z,21.10
2018-09-06T05:17:28.703Z,18.90
2018-09-06T05:19:57.377Z,21.90
2018-09-06T05:22:26.032Z,24.40
2018-09-06T05:24:54.720Z,26.10
2018-09-06T05:27:23.497Z,19.13
2018-09-06T05:29:52.154Z,22.70
2018-09-06T05:32:20.914Z,20.50
2018-09-06T05:34:49.793Z,20.20
2018-09-06T05:37:18.417Z,23.77
2018-09-06T05:39:47.194Z,19.93
2018-09-06T05:42:15.981Z,20.90
2018-09-06T05:44:44.717Z,26.77
2018-09-06T05:47:14.048Z,18.67
2018-09-06T05:49:42.872Z,20.13
2018-09-06T05:52:11.585Z,25.43
2018-09-06T05:54:40.322Z,28.90
2018-09-06T05:57:09.072Z,28.40
2018-09-06T05:59:37.773Z,22.93
2018-09-06T06:02:06.633Z,23.77
2018-09-06T06:04:35.373Z,32.60
2018-09-06T06:07:04.049Z,26.97
2018-09-06T06:09:32.736Z,27.20
2018-09-06T06:12:01.530Z,25.63
2018-09-06T06:14:30.422Z,24.27
2018-09-06T06:16:59.178Z,23.20
2018-09-06T06:19:28.089Z,29.43
2018-09-06T06:21:56.744Z,25.07
2018-09-06T06:24:26.394Z,20.90
2018-09-06T06:26:55.188Z,25.43
2018-09-06T06:29:24.030Z,28.63
2018-09-06T06:31:52.790Z,30.27
2018-09-06T06:34:21.658Z,28.43
2018-09-06T06:36:50.324Z,23.33
2018-09-06T06:39:19.113Z,31.93
2018-09-06T06:41:47.822Z,23.77
2018-09-06T06:44:16.577Z,25.87
2018-09-06T06:46:45.227Z,24.03
2018-09-06T06:49:13.916Z,26.97
2018-09-06T06:51:42.567Z,23.53
2018-09-06T06:54:11.216Z,28.60
2018-09-06T06:56:39.894Z,37.80
2018-09-06T06:59:08.801Z,20.60
2018-09-06T07:01:37.593Z,20.13
2018-09-06T07:04:06.286Z,29.20
2018-09-06T07:06:34.950Z,34.47
2018-09-06T07:09:03.957Z,26.80
2018-09-06T07:11:32.852Z,21.83
2018-09-06T07:14:01.486Z,22.67
2018-09-06T07:16:30.153Z,19.23
2018-09-06T07:18:58.940Z,24.20
2018-09-06T07:21:27.661Z,19.67
2018-09-06T07:23:56.320Z,20.33
2018-09-06T07:26:25.200Z,18.60
2018-09-06T07:28:54.264Z,19.73
2018-09-06T07:31:22.938Z,19.10
2018-09-06T07:33:52.006Z,17.73
2018-09-06T07:36:20.959Z,32.07
2018-09-06T07:38:49.717Z,16.90
2018-09-06T07:41:18.349Z,19.90
2018-09-06T07:43:46.927Z,21.30
2018-09-06T07:46:15.534Z,19.30
2018-09-06T07:48:44.286Z,16.47
2018-09-06T07:51:12.917Z,17.43
2018-09-06T07:53:41.785Z,20.63
2018-09-06T07:56:10.443Z,22.00
2018-09-06T07:58:39.791Z,21.03
2018-09-06T08:01:08.346Z,18.37
2018-09-06T08:03:37.174Z,15.57
2018-09-06T08:06:05.792Z,20.57
2018-09-06T08:08:34.385Z,17.73
2018-09-06T08:11:03.076Z,24.77
2018-09-06T08:13:31.684Z,27.27
2018-09-06T08:16:00.271Z,16.27
2018-09-06T08:18:28.858Z,23.10
2018-09-06T08:20:57.540Z,23.00
2018-09-06T08:23:26.253Z,19.40
2018-09-06T08:25:54.910Z,15.50
2018-09-06T08:28:23.562Z,14.10
2018-09-06T08:30:52.354Z,15.73
2018-09-06T08:33:20.921Z,18.00
2018-09-06T08:35:49.542Z,15.60
2018-09-06T08:38:18.183Z,16.83
2018-09-06T08:40:46.847Z,15.83
2018-09-06T08:43:15.430Z,21.33
2018-09-06T08:45:44.305Z,22.03
2018-09-06T08:48:13.127Z,25.20
2018-09-06T08:50:41.860Z,31.47
2018-09-06T08:53:10.427Z,16.80
2018-09-06T08:55:39.155Z,21.27
2018-09-06T08:58:07.772Z,27.13
2018-09-06T09:00:40.483Z,27.03
2018-09-06T09:03:10.841Z,17.43
2018-09-06T09:05:39.413Z,20.20
2018-09-06T09:08:08.048Z,16.17
2018-09-06T09:10:36.821Z,18.97
2018-09-06T09:13:05.986Z,17.67
2018-09-06T09:15:34.873Z,15.30
2018-09-06T09:18:04.302Z,16.27
2018-09-06T09:20:33.054Z,15.70
2018-09-06T09:23:01.806Z,20.40
2018-09-06T09:25:30.633Z,14.50
2018-09-06T09:27:59.501Z,21.50
2018-09-06T09:30:28.771Z,18.63
2018-09-06T09:32:57.631Z,17.80
2018-09-06T09:35:26.234Z,20.30
2018-09-06T09:37:54.854Z,18.93
2018-09-06T09:40:23.495Z,17.50
2018-09-06T09:42:52.586Z,19.60
2018-09-06T09:45:21.377Z,15.30
2018-09-06T09:47:51.091Z,22.17
2018-09-06T09:52:47.879Z,21.60
2018-09-06T09:55:16.524Z,21.60
2018-09-06T09:57:45.205Z,22.60
2018-09-06T10:00:13.878Z,15.13
2018-09-06T10:02:47.926Z,22.90
2018-09-06T10:05:21.905Z,17.03
2018-09-06T10:07:55.892Z,22.93
2018-09-06T10:10:24.669Z,19.37
2018-09-06T10:12:53.341Z,19.27
2018-09-06T10:15:21.959Z,19.93
2018-09-06T10:17:51.584Z,21.53
2018-09-06T10:20:20.427Z,22.70
2018-09-06T10:22:49.301Z,29.83
2018-09-06T10:25:17.953Z,26.10
2018-09-06T10:27:46.679Z,18.17
2018-09-06T10:30:15.315Z,20.50
2018-09-06T10:32:43.977Z,20.00
2018-09-06T10:35:12.768Z,19.40
2018-09-06T10:37:41.447Z,22.60
2018-09-06T10:40:10.195Z,22.90
2018-09-06T10:42:39.292Z,22.97
2018-09-06T10:45:09.868Z,23.67
2018-09-06T10:47:38.655Z,24.10
2018-09-06T10:50:07.334Z,26.07
2018-09-06T10:52:36.037Z,22.97
2018-09-06T10:55:04.775Z,25.43
2018-09-06T10:57:33.527Z,22.60
2018-09-06T11:00:02.358Z,22.10
2018-09-06T11:02:31.076Z,23.23
2018-09-06T11:04:59.768Z,21.30
2018-09-06T11:07:28.511Z,27.00
2018-09-06T11:09:57.188Z,22.53
2018-09-06T11:12:25.852Z,25.77
2018-09-06T11:14:54.450Z,19.70
2018-09-06T11:17:23.180Z,24.40
2018-09-06T11:19:51.833Z,26.77
2018-09-06T11:22:20.551Z,27.90
2018-09-06T11:24:49.093Z,30.00
2018-09-06T11:27:17.716Z,28.63
2018-09-06T11:29:46.414Z,26.37
2018-09-06T11:32:14.963Z,26.13
2018-09-06T11:34:43.646Z,24.00
2018-09-06T11:37:12.236Z,33.53
2018-09-06T11:39:40.839Z,30.17
2018-09-06T11:42:09.496Z,28.13
2018-09-06T11:44:38.106Z,27.10
2018-09-06T11:47:06.658Z,29.53
2018-09-06T11:49:35.292Z,26.93
2018-09-06T11:52:04.033Z,26.47
2018-09-06T11:54:32.974Z,29.43
2018-09-06T11:57:01.626Z,30.50
2018-09-06T11:59:30.418Z,31.50
2018-09-06T12:01:59.368Z,30.93
2018-09-06T12:04:28.074Z,31.57
2018-09-06T12:06:56.667Z,27.93
2018-09-06T12:09:25.293Z,27.57
2018-09-06T12:11:54.011Z,29.47
2018-09-06T12:14:22.623Z,30.90
2018-09-06T12:16:51.456Z,34.20
2018-09-06T12:19:20.200Z,33.60
2018-09-06T12:21:48.812Z,34.27
2018-09-06T12:24:17.549Z,35.10
2018-09-06T12:26:46.214Z,34.50
2018-09-06T12:29:14.815Z,32.00
2018-09-06T12:31:43.565Z,31.90
2018-09-06T12:34:12.386Z,34.47
2018-09-06T12:36:41.178Z,28.00
2018-09-06T12:39:10.455Z,27.37
2018-09-06T12:41:39.742Z,26.43
2018-09-06T12:44:08.627Z,24.10
2018-09-06T12:46:37.297Z,27.27
2018-09-06T12:49:06.028Z,26.07
2018-09-06T12:51:35.031Z,23.47
2018-09-06T12:54:03.864Z,20.93
2018-09-06T12:56:32.560Z,22.90
2018-09-06T12:59:01.977Z,18.27
2018-09-06T13:01:30.633Z,19.50
2018-09-06T13:03:59.381Z,16.97
2018-09-06T13:06:27.995Z,15.50
2018-09-06T13:08:56.708Z,17.30
2018-09-06T13:11:25.433Z,17.63
2018-09-06T13:13:54.089Z,17.20
2018-09-06T13:16:22.681Z,20.17
2018-09-06T13:18:51.919Z,18.83
2018-09-06T13:21:20.474Z,15.27
2018-09-06T13:23:49.189Z,18.53
2018-09-06T13:26:18.181Z,15.73
2018-09-06T13:28:46.875Z,20.20
2018-09-06T13:31:15.736Z,19.70
2018-09-06T13:33:44.886Z,15.37
2018-09-06T13:36:13.545Z,20.27
2018-09-06T13:38:42.733Z,16.73
2018-09-06T13:41:11.428Z,18.40
2018-09-06T13:43:40.054Z,20.00
2018-09-06T13:46:09.166Z,21.50
2018-09-06T13:48:37.734Z,18.47
2018-09-06T13:51:06.392Z,16.90
2018-09-06T13:53:34.991Z,18.73
2018-09-06T13:56:03.753Z,16.83
2018-09-06T13:58:32.452Z,18.33
2018-09-06T14:01:01.039Z,17.40
2018-09-06T14:03:29.977Z,15.90
2018-09-06T14:05:58.757Z,16.70
2018-09-06T14:08:27.423Z,15.23
2018-09-06T14:10:56.081Z,14.70
2018-09-06T14:13:24.782Z,15.60
2018-09-06T14:15:53.473Z,15.20
2018-09-06T14:18:22.162Z,13.27
2018-09-06T14:20:50.877Z,12.53
2018-09-06T14:23:19.598Z,14.40
2018-09-06T14:25:48.263Z,13.77
2018-09-06T14:28:16.857Z,14.60
2018-09-06T14:30:45.436Z,17.00
2018-09-06T14:33:14.678Z,15.30
2018-09-06T14:35:43.241Z,14.93
2018-09-06T14:38:12.580Z,16.07
2018-09-06T14:40:41.467Z,20.17
2018-09-06T14:43:10.128Z,21.47
2018-09-06T14:45:38.846Z,21.00
2018-09-06T14:48:07.476Z,22.97
2018-09-06T14:50:36.041Z,22.30
2018-09-06T14:53:04.673Z,24.00
2018-09-06T14:55:33.364Z,21.60
2018-09-06T14:58:02.142Z,21.77
2018-09-06T15:00:30.786Z,26.90
2018-09-06T15:02:59.524Z,24.70
2018-09-06T15:05:28.176Z,24.93
2018-09-06T15:07:56.839Z,24.20
2018-09-06T15:10:25.454Z,28.73
2018-09-06T15:13:00.553Z,28.80
2018-09-06T15:15:30.267Z,31.40
2018-09-06T15:17:59.038Z,27.97
2018-09-06T15:20:27.674Z,30.20
2018-09-06T15:22:56.396Z,32.10
2018-09-06T15:25:25.074Z,33.37
2018-09-06T15:27:53.777Z,35.77
2018-09-06T15:30:22.575Z,32.63
2018-09-06T15:32:54.861Z,40.40
2018-09-06T15:35:45.267Z,41.23
2018-09-06T15:38:17.795Z,36.30
2018-09-06T15:40:49.184Z,46.67
2018-09-06T15:43:17.835Z,46.00
2018-09-06T15:45:46.539Z,45.97
2018-09-06T15:48:15.267Z,45.63
2018-09-06T15:50:46.808Z,49.40
2018-09-06T15:53:16.376Z,44.10
2018-09-06T15:55:45.004Z,53.83
2018-09-06T15:58:14.549Z,51.23
2018-09-06T16:00:43.172Z,59.00
2018-09-06T16:03:15.965Z,64.10
2018-09-06T16:05:44.882Z,58.13
2018-09-06T16:08:13.573Z,61.33
2018-09-06T16:10:42.742Z,59.33
2018-09-06T16:13:11.506Z,60.13
2018-09-06T16:15:40.132Z,52.43
2018-09-06T16:18:08.984Z,66.67
2018-09-06T16:20:37.674Z,61.83
2018-09-06T16:23:06.423Z,58.60
2018-09-06T16:25:34.933Z,61.27
2018-09-06T16:28:03.753Z,69.80
2018-09-06T16:30:32.270Z,66.23
2018-09-06T16:33:00.884Z,75.57
2018-09-06T16:35:29.491Z,66.50
2018-09-06T16:37:58.166Z,66.67
2018-09-06T16:40:26.888Z,68.97
2018-09-06T16:42:55.602Z,60.13
2018-09-06T16:45:24.267Z,66.30
2018-09-06T16:47:52.902Z,71.20
2018-09-06T16:50:21.740Z,68.70
2018-09-06T16:52:50.521Z,64.40
2018-09-06T16:55:19.199Z,70.53
2018-09-06T16:57:47.957Z,78.33
2018-09-06T17:00:16.695Z,69.63
2018-09-06T17:02:45.353Z,71.60
2018-09-06T17:05:13.978Z,75.97
2018-09-06T17:07:42.702Z,70.37
2018-09-06T17:10:11.331Z,71.00
2018-09-06T17:12:39.966Z,71.80
2018-09-06T17:15:08.689Z,78.73
2018-09-06T17:17:38.777Z,79.87
2018-09-06T17:20:07.742Z,77.97
2018-09-06T17:22:36.541Z,84.03
2018-09-06T17:25:05.355Z,80.33
2018-09-06T17:27:34.073Z,70.57
2018-09-06T17:30:02.724Z,74.23
2018-09-06T17:32:31.402Z,81.90
2018-09-06T17:35:00.111Z,80.07
2018-09-06T17:37:28.849Z,73.30
2018-09-06T17:39:57.846Z,78.87
2018-09-06T17:42:27.360Z,73.67
2018-09-06T17:44:56.091Z,75.90
2018-09-06T17:47:24.822Z,81.73
2018-09-06T17:49:53.457Z,77.20
2018-09-06T17:52:22.088Z,75.33
2018-09-06T17:54:50.847Z,75.30
2018-09-06T17:57:19.396Z,83.40
2018-09-06T17:59:48.082Z,81.13
2018-09-06T18:02:17.565Z,75.23
2018-09-06T18:07:37.037Z,96.00
2018-09-06T18:10:06.083Z,80.53
2018-09-06T18:12:34.958Z,96.20
2018-09-06T18:15:05.007Z,87.13
2018-09-06T18:17:33.883Z,81.53
2018-09-06T18:20:02.672Z,90.20
2018-09-06T18:22:32.572Z,90.47
2018-09-06T18:25:01.381Z,100.23
2018-09-06T18:27:30.221Z,103.10
2018-09-06T18:29:58.966Z,97.80
2018-09-06T18:32:27.607Z,101.13
2018-09-06T18:34:56.940Z,103.50
2018-09-06T18:37:26.302Z,94.70
2018-09-06T18:39:55.355Z,105.07
2018-09-06T18:42:24.145Z,95.93
2018-09-06T18:44:52.750Z,106.10
2018-09-06T18:47:21.758Z,112.30
2018-09-06T18:49:51.535Z,105.30
2018-09-06T18:52:22.549Z,116.57
2018-09-06T18:54:51.510Z,116.90
2018-09-06T18:57:21.684Z,122.87
2018-09-06T18:59:51.585Z,107.77
2018-09-06T19:02:20.921Z,126.30
2018-09-06T19:04:49.923Z,114.10
2018-09-06T19:07:18.526Z,128.73
2018-09-06T19:09:48.455Z,118.97
2018-09-06T19:12:17.488Z,121.23
2018-09-06T19:14:46.313Z,122.67
2018-09-06T19:17:15.082Z,115.67
2018-09-06T19:19:43.854Z,117.03
2018-09-06T19:22:13.792Z,120.83
2018-09-06T19:24:42.721Z,129.90
2018-09-06T19:27:11.636Z,108.03
2018-09-06T19:29:41.734Z,112.53
2018-09-06T19:32:11.061Z,112.60
2018-09-06T19:34:39.779Z,103.47
2018-09-06T19:37:08.440Z,106.87
2018-09-06T19:39:37.122Z,101.10
2018-09-06T19:42:06.655Z,101.53
2018-09-06T19:44:35.321Z,97.67
2018-09-06T19:47:04.043Z,93.90
2018-09-06T19:49:34.268Z,93.50
2018-09-06T19:52:03.467Z,90.50
2018-09-06T19:54:32.221Z,80.13
2018-09-06T19:57:01.468Z,84.87
2018-09-06T19:59:30.324Z,83.63
2018-09-06T20:01:59.209Z,79.07
2018-09-06T20:04:28.372Z,92.40
2018-09-06T20:06:57.230Z,78.10
2018-09-06T20:09:26.337Z,82.03
2018-09-06T20:11:56.318Z,69.97
2018-09-06T20:14:25.070Z,69.17
2018-09-06T20:16:54.231Z,67.30
2018-09-06T20:19:22.876Z,52.10
2018-09-06T20:21:53.134Z,61.13
2018-09-06T20:24:22.295Z,53.70
2018-09-06T20:26:50.946Z,43.37
2018-09-06T20:29:19.722Z,51.43
2018-09-06T20:31:48.466Z,51.70
2018-09-06T20:34:17.186Z,52.53
2018-09-06T20:36:46.178Z,49.33
2018-09-06T20:39:15.120Z,42.30
2018-09-06T20:41:44.747Z,37.23
2018-09-06T20:44:13.414Z,30.90
2018-09-06T20:46:56.062Z,28.97
2018-09-06T20:49:25.298Z,23.37
2018-09-06T20:51:54.105Z,26.93
2018-09-06T20:54:22.983Z,24.90
2018-09-06T20:56:53.069Z,24.00
2018-09-06T20:59:21.906Z,20.47
2018-09-06T21:01:52.105Z,23.10
2018-09-06T21:04:21.986Z,23.33
2018-09-06T21:06:50.670Z,24.90
2018-09-06T21:09:20.200Z,25.07
2018-09-06T21:11:49.244Z,27.33
2018-09-06T21:14:19.695Z,23.13
2018-09-06T21:16:48.515Z,26.53
2018-09-06T21:19:17.649Z,23.70
2018-09-06T21:21:46.716Z,24.90
2018-09-06T21:24:16.343Z,25.70
2018-09-06T21:26:45.105Z,29.10
2018-09-06T21:29:13.874Z,24.63
2018-09-06T21:31:42.986Z,23.07
2018-09-06T21:34:11.813Z,22.60
2018-09-06T21:36:41.070Z,22.50
2018-09-06T21:39:12.370Z,23.10
2018-09-06T21:41:42.228Z,20.57
2018-09-06T21:44:12.206Z,19.00
2018-09-06T21:46:41.867Z,19.90
2018-09-06T21:49:11.559Z,20.50
2018-09-06T21:51:41.679Z,20.43
2018-09-06T21:54:10.550Z,16.70
2018-09-06T21:56:39.971Z,14.73
2018-09-06T21:59:08.996Z,17.33
2018-09-06T22:01:39.616Z,13.73
2018-09-06T22:04:09.718Z,12.20
2018-09-06T22:06:39.662Z,14.77
2018-09-06T22:09:12.269Z,15.17
2018-09-06T22:11:41.616Z,13.80
2018-09-06T22:14:10.645Z,16.53
2018-09-06T22:16:39.641Z,15.77
2018-09-06T22:19:09.933Z,14.60
2018-09-06T22:21:41.253Z,16.23
2018-09-06T22:24:10.529Z,12.60
2018-09-06T22:26:39.933Z,16.13
2018-09-06T22:29:08.645Z,13.20
2018-09-06T22:31:37.391Z,13.73
2018-09-06T22:34:06.574Z,11.90
2018-09-06T22:36:35.466Z,10.30
2018-09-06T22:39:06.379Z,10.43
2018-09-06T22:41:35.773Z,12.20
2018-09-06T22:44:05.267Z,11.63
2018-09-06T22:46:36.007Z,11.13
2018-09-06T22:49:05.849Z,10.83
2018-09-06T22:51:35.144Z,8.60
2018-09-06T22:54:05.415Z,11.07
2018-09-06T22:56:34.289Z,9.40
2018-09-06T22:59:03.314Z,11.23
2018-09-06T23:01:32.407Z,10.30
2018-09-06T23:04:01.751Z,9.13
2018-09-06T23:06:31.165Z,11.83
2018-09-06T23:09:00.216Z,9.30
2018-09-06T23:11:29.512Z,6.63
2018-09-06T23:13:58.874Z,10.80
2018-09-06T23:16:28.153Z,7.37
2018-09-06T23:18:58.683Z,7.50
2018-09-06T23:21:28.184Z,9.63
2018-09-06T23:23:57.187Z,11.57
2018-09-06T23:26:26.869Z,8.43
2018-09-06T23:28:56.011Z,10.37
2018-09-06T23:31:24.745Z,10.50
2018-09-06T23:33:53.464Z,9.43
2018-09-06T23:36:22.247Z,12.63
2018-09-06T23:38:51.302Z,11.83
2018-09-06T23:41:20.133Z,11.80
2018-09-06T23:43:48.818Z,14.97
2018-09-06T23:46:17.680Z,11.77
2018-09-06T23:48:46.411Z,15.03
2018-09-06T23:51:15.083Z,12.17
2018-09-06T23:53:43.789Z,15.03
2018-09-06T23:56:13.721Z,12.80
2018-09-06T23:58:43.146Z,13.13
